Time;durP1;ratioP1;P1;durP2;ratioP2;P2;SDS_P1;SDS_P2;PMS_P1;PMS_P2;Temp;Humidity;BMP_temperature;BMP_pressure;BME280_temperature;BME280_humidity;BME280_pressure;Samples;Min_cycle;Max_cycle;Signal;HPM_P1;HPM_P2
2024/03/20 00:02:25;;;;;;;13.77;10.00;;;6.60;91.30;;;6.10;92.60;98292.25;5051151;28;20476;-68
2024/03/20 00:04:54;;;;;;;11.57;10.27;;;6.60;91.30;;;6.06;92.66;98288.28;5057863;28;20494;-69
2024/03/20 00:07:22;;;;;;;13.30;9.63;;;6.50;91.30;;;6.01;92.80;98282.59;5058980;28;20516;-69
2024/03/20 00:09:49;;;;;;;16.63;11.03;;;6.50;91.30;;;5.96;93.28;98281.25;5059949;28;20527;-69
2024/03/20 00:12:16;;;;;;;14.67;11.53;;;6.50;91.40;;;5.91;93.92;98282.81;5056837;28;20868;-69
2024/03/20 00:14:44;;;;;;;14.87;11.17;;;6.50;91.70;;;5.90;93.83;98283.81;5053951;28;20470;-69
2024/03/20 00:17:16;;;;;;;14.00;10.47;;;6.50;91.70;;;5.88;93.93;98284.03;5057187;28;20485;-70
2024/03/20 00:19:43;;;;;;;16.00;11.33;;;6.40;91.60;;;5.85;93.74;98281.69;5060150;28;20610;-68
2024/03/20 00:22:12;;;;;;;13.73;10.33;;;6.30;91.70;;;5.86;94.27;98280.69;5058579;28;20530;-68
2024/03/20 00:24:40;;;;;;;11.60;10.20;;;6.30;91.90;;;5.84;93.66;98282.72;5057798;28;20864;-70
2024/03/20 00:27:07;;;;;;;12.63;9.80;;;6.30;91.90;;;5.78;94.06;98278.91;5063172;28;20488;-69
2024/03/20 00:29:35;;;;;;;13.33;9.83;;;6.30;91.90;;;5.73;94.70;98272.41;5051711;28;20485;-69
2024/03/20 00:32:03;;;;;;;14.73;9.83;;;6.30;91.90;;;5.75;94.19;98287.28;5064380;28;20498;-68
2024/03/20 00:34:33;;;;;;;13.83;10.30;;;6.20;91.80;;;5.63;94.43;98278.81;5047263;28;20554;-69
2024/03/20 00:37:01;;;;;;;14.57;10.93;;;6.20;91.80;;;5.59;94.73;98280.19;5056610;28;21020;-68
2024/03/20 00:39:28;;;;;;;12.70;9.93;;;6.10;91.90;;;5.54;94.63;98277.22;5078852;28;20481;-69
2024/03/20 00:41:58;;;;;;;17.90;11.30;;;6.00;92.40;;;5.49;95.88;98272.38;5050292;28;20490;-69
2024/03/20 00:44:26;;;;;;;13.20;11.40;;;6.00;92.90;;;5.45;96.04;98270.22;5063168;28;20469;-68
2024/03/20 00:46:55;;;;;;;17.90;10.60;;;6.00;93.10;;;5.45;95.92;98270.22;5062050;28;20580;-67
2024/03/20 00:49:23;;;;;;;17.00;10.70;;;6.00;93.00;;;5.39;96.08;98269.91;5059837;28;20500;-68
2024/03/20 00:51:51;;;;;;;13.43;10.27;;;5.90;93.10;;;5.27;96.86;98270.47;5046667;28;20678;-68
2024/03/20 00:54:19;;;;;;;11.80;10.37;;;5.80;93.10;;;5.42;96.59;98266.03;5061848;28;20472;-68
2024/03/20 00:56:45;;;;;;;14.17;9.87;;;5.80;93.70;;;5.45;96.18;98262.19;5062533;28;20478;-69
2024/03/20 00:59:14;;;;;;;11.57;10.30;;;5.80;93.70;;;5.33;95.59;98249.16;5059012;28;20487;-68
2024/03/20 01:01:42;;;;;;;13.97;9.57;;;5.90;93.30;;;5.42;96.11;98259.84;5060065;28;20480;-68
2024/03/20 01:04:12;;;;;;;13.23;9.90;;;5.90;93.20;;;5.41;95.50;98258.19;5062054;28;20496;-68
2024/03/20 01:06:39;;;;;;;15.30;9.93;;;5.90;93.10;;;5.35;95.21;98249.81;5074765;28;20487;-68
2024/03/20 01:09:09;;;;;;;12.80;10.47;;;5.90;92.80;;;5.29;95.51;98250.53;5063934;28;20946;-68
2024/03/20 01:11:36;;;;;;;11.93;9.43;;;5.80;92.80;;;5.27;95.53;98255.25;5059743;28;20537;-68
2024/03/20 01:14:03;;;;;;;13.70;10.50;;;5.80;93.10;;;5.22;96.24;98246.88;5060624;28;20481;-68
2024/03/20 01:16:31;;;;;;;14.83;9.43;;;5.80;93.10;;;5.18;96.65;98250.94;5065866;28;21940;-69
2024/03/20 01:18:58;;;;;;;14.30;9.90;;;5.70;92.90;;;5.14;96.76;98249.63;5059357;28;20838;-68
2024/03/20 01:21:26;;;;;;;12.30;9.63;;;5.70;92.90;;;5.10;96.44;98249.97;5056004;28;20478;-69
2024/03/20 01:23:53;;;;;;;16.13;9.70;;;5.70;93.00;;;5.03;96.42;98248.97;5061969;28;20475;-66
2024/03/20 01:26:23;;;;;;;11.60;9.90;;;5.60;93.10;;;4.93;96.23;98233.13;5061358;28;20485;-68
2024/03/20 01:28:51;;;;;;;11.67;9.50;;;5.50;93.40;;;4.98;96.29;98248.69;5056879;28;20464;-69
2024/03/20 01:31:20;;;;;;;9.93;8.93;;;5.50;93.60;;;4.99;97.11;98253.03;5059302;28;20479;-69
2024/03/20 01:33:49;;;;;;;12.80;10.03;;;5.50;93.80;;;4.94;97.01;98247.38;5056453;28;20466;-69
2024/03/20 01:36:16;;;;;;;11.03;9.17;;;5.50;93.60;;;4.89;97.59;98237.16;5079074;28;20993;-67
2024/03/20 01:38:43;;;;;;;14.93;10.63;;;5.50;93.60;;;4.92;97.06;98242.16;5065235;28;20505;-69
2024/03/20 01:41:10;;;;;;;15.90;9.67;;;5.50;93.60;;;4.87;97.73;98243.69;5062364;28;20484;-69
2024/03/20 01:43:39;;;;;;;13.77;10.27;;;5.40;93.50;;;4.87;97.29;98238.34;5064166;28;20479;-69
2024/03/20 01:46:27;;;;;;;14.00;9.97;;;5.40;93.70;;;4.81;97.26;98240.72;5061831;28;21077;-70
2024/03/20 01:48:55;;;;;;;11.53;9.60;;;5.40;93.90;;;4.81;97.25;98246.06;5054002;28;20573;-69
2024/03/20 01:51:23;;;;;;;10.77;8.83;;;5.40;93.90;;;4.63;98.10;98237.44;5046233;28;20572;-68
2024/03/20 01:53:50;;;;;;;10.40;8.30;;;5.30;94.00;;;4.45;100.00;98237.63;5042567;28;20579;-68
2024/03/20 01:56:18;;;;;;;14.93;10.23;;;5.30;94.10;;;4.37;99.94;98238.50;5065680;28;20536;-68
2024/03/20 01:58:47;;;;;;;13.50;9.70;;;5.20;93.90;;;4.36;100.00;98242.16;5066741;28;21113;-69
2024/03/20 02:01:14;;;;;;;12.10;10.30;;;5.10;94.40;;;4.32;100.00;98243.50;5057110;28;20469;-68
2024/03/20 02:03:42;;;;;;;16.03;10.20;;;5.10;94.70;;;4.65;99.87;98240.78;5061982;28;20530;-69
2024/03/20 02:06:22;;;;;;;11.93;9.30;;;5.20;95.60;;;4.59;98.86;98236.94;5078667;28;20476;-69
2024/03/20 02:08:51;;;;;;;15.73;9.70;;;5.20;94.80;;;4.66;98.76;98237.91;5058054;28;20558;-69
2024/03/20 02:11:20;;;;;;;9.67;8.57;;;5.10;94.80;;;4.62;98.12;98222.34;5060522;28;20485;-69
2024/03/20 02:13:49;;;;;;;13.67;10.23;;;5.10;94.80;;;4.54;99.33;98232.09;5057117;28;20580;-69
2024/03/20 02:16:19;;;;;;;9.53;8.40;;;5.00;94.80;;;4.43;98.91;98216.38;5062523;28;20476;-69
2024/03/20 02:18:50;;;;;;;11.60;9.40;;;5.00;95.20;;;4.57;99.22;98238.09;5058855;28;20540;-69
2024/03/20 02:21:23;;;;;;;12.80;9.83;;;5.00;95.60;;;4.53;99.00;98233.09;5063466;28;20504;-68
2024/03/20 02:23:52;;;;;;;11.33;8.63;;;5.00;95.50;;;4.44;98.93;98223.41;5056626;28;20482;-68
2024/03/20 02:26:19;;;;;;;11.80;9.00;;;5.10;95.30;;;4.50;99.00;98236.13;5059529;28;20477;-68
2024/03/20 02:28:47;;;;;;;10.97;9.20;;;5.10;95.10;;;4.48;99.12;98240.81;5060923;28;20521;-68
2024/03/20 02:31:16;;;;;;;16.30;9.73;;;5.00;95.10;;;4.45;99.94;98237.63;5062147;28;20480;-69
2024/03/20 02:33:43;;;;;;;14.07;9.87;;;5.00;95.10;;;4.50;99.14;98238.81;5055544;28;20489;-68
2024/03/20 02:36:11;;;;;;;11.53;8.80;;;5.10;95.20;;;4.47;99.46;98233.75;5062313;28;20513;-67
2024/03/20 02:38:41;;;;;;;17.53;9.70;;;5.00;94.90;;;4.45;98.92;98245.66;5064057;28;20484;-68
2024/03/20 02:41:09;;;;;;;14.10;10.07;;;5.00;95.00;;;4.41;99.34;98239.00;5063009;28;20462;-68
2024/03/20 02:43:36;;;;;;;16.53;10.33;;;5.00;95.00;;;4.37;100.00;98228.59;5061446;28;20471;-69
2024/03/20 02:46:04;;;;;;;12.10;9.50;;;5.00;95.00;;;4.41;99.81;98231.78;5058948;28;20542;-69
2024/03/20 02:48:34;;;;;;;10.30;9.13;;;5.00;95.10;;;4.31;99.79;98223.09;5074457;28;20493;-68
2024/03/20 02:51:03;;;;;;;12.93;10.03;;;4.90;94.90;;;4.38;99.65;98234.81;5061293;28;20500;-67
2024/03/20 02:53:30;;;;;;;13.50;9.70;;;4.90;95.50;;;4.36;100.00;98240.31;5055091;28;20502;-68
2024/03/20 02:55:58;;;;;;;11.17;8.90;;;4.90;95.30;;;4.21;98.72;98213.44;5061713;28;20472;-69
2024/03/20 02:58:26;;;;;;;11.27;9.70;;;4.90;95.20;;;4.38;99.39;98240.16;5055391;28;20474;-68
2024/03/20 03:00:53;;;;;;;14.70;9.27;;;4.90;95.20;;;4.32;99.70;98240.81;5062737;28;20884;-68
2024/03/20 03:03:20;;;;;;;11.53;9.10;;;4.90;95.10;;;4.35;99.99;98243.19;5061531;28;20516;-68
2024/03/20 03:05:48;;;;;;;14.63;9.67;;;4.90;95.10;;;4.27;99.16;98243.19;5064495;28;20668;-68
2024/03/20 03:08:15;;;;;;;10.93;8.60;;;4.80;94.90;;;4.14;100.00;98233.81;5055209;28;20502;-69
2024/03/20 03:10:43;;;;;;;11.13;8.63;;;4.70;95.30;;;4.14;100.00;98238.34;5055973;28;20957;-69
2024/03/20 03:13:11;;;;;;;13.20;10.03;;;4.70;95.70;;;4.07;100.00;98232.84;5057277;28;20973;-68
2024/03/20 03:15:39;;;;;;;15.20;9.57;;;4.60;96.10;;;4.04;100.00;98239.34;5056769;28;20480;-68
2024/03/20 03:18:07;;;;;;;10.83;8.70;;;4.60;96.20;;;3.92;100.00;98236.19;5062592;28;20875;-68
2024/03/20 03:20:34;;;;;;;13.77;9.73;;;4.60;96.10;;;3.95;100.00;98238.53;5062837;28;20494;-67
2024/03/20 03:23:02;;;;;;;10.67;9.50;;;4.50;96.30;;;3.97;100.00;98249.06;5058983;28;20478;-67
2024/03/20 03:25:29;;;;;;;16.23;9.50;;;4.50;96.60;;;4.03;100.00;98248.38;5062143;28;20478;-68
2024/03/20 03:27:56;;;;;;;11.60;8.90;;;4.50;97.70;;;4.05;100.00;98251.72;5062140;28;20524;-69
2024/03/20 03:30:26;;;;;;;11.80;9.00;;;4.60;97.10;;;4.04;100.00;98244.69;5054259;28;20482;-69
2024/03/20 03:32:53;;;;;;;11.30;9.20;;;4.60;96.50;;;3.96;100.00;98248.22;5061215;28;20891;-68
2024/03/20 03:35:24;;;;;;;11.30;9.23;;;4.60;96.00;;;3.99;100.00;98246.19;5059461;28;20512;-68
2024/03/20 03:37:51;;;;;;;13.87;10.20;;;4.50;95.90;;;3.95;100.00;98251.88;5059721;28;20849;-68
2024/03/20 03:40:18;;;;;;;12.10;10.03;;;4.50;95.90;;;3.95;100.00;98251.06;5057415;28;20983;-68
2024/03/20 03:42:46;;;;;;;15.90;9.33;;;4.50;96.20;;;3.91;100.00;98249.72;5059255;28;20472;-69
2024/03/20 03:45:15;;;;;;;13.10;9.93;;;4.50;96.30;;;3.88;100.00;98250.06;5077527;28;20477;-68
2024/03/20 03:47:43;;;;;;;14.90;9.90;;;4.40;96.10;;;3.86;100.00;98247.53;5059414;28;21475;-68
2024/03/20 03:50:11;;;;;;;10.47;9.00;;;4.40;96.30;;;3.87;100.00;98262.59;5055494;28;20480;-68
2024/03/20 03:52:39;;;;;;;11.30;8.90;;;4.40;96.20;;;3.69;100.00;98255.53;5057328;28;20521;-69
2024/03/20 03:55:08;;;;;;;13.13;9.33;;;4.20;95.80;;;3.78;100.00;98250.22;5059300;28;20489;-69
2024/03/20 03:57:39;;;;;;;14.80;10.13;;;4.20;97.10;;;3.79;100.00;98265.25;5059144;28;20508;-69
2024/03/20 04:00:10;;;;;;;11.37;9.27;;;4.30;97.30;;;3.79;100.00;98257.22;5062593;28;20468;-68
2024/03/20 04:02:40;;;;;;;12.17;9.83;;;4.30;97.10;;;3.72;100.00;98249.03;5075609;28;20480;-69
2024/03/20 04:05:09;;;;;;;12.23;9.60;;;4.30;96.80;;;3.84;100.00;98262.91;5062056;28;20485;-70
2024/03/20 04:07:36;;;;;;;12.60;9.50;;;4.30;96.80;;;3.73;100.00;98252.56;5054461;28;20477;-69
2024/03/20 04:10:06;;;;;;;14.73;9.70;;;4.30;96.30;;;3.37;100.00;98197.56;5062518;28;20516;-68
2024/03/20 04:12:36;;;;;;;14.30;10.20;;;4.30;96.30;;;3.77;100.00;98253.91;5052517;28;20481;-69
2024/03/20 04:15:06;;;;;;;12.37;10.17;;;4.30;96.20;;;3.69;100.00;98260.88;5058718;28;20610;-69
2024/03/20 04:17:33;;;;;;;11.47;9.50;;;4.20;96.00;;;3.63;100.00;98263.38;5029395;28;20470;-69
2024/03/20 04:20:01;;;;;;;12.20;9.70;;;4.20;96.20;;;3.59;100.00;98265.56;5058975;28;20995;-69
2024/03/20 04:22:30;;;;;;;13.77;10.00;;;4.20;96.50;;;3.52;100.00;98272.56;5056417;28;20837;-69
2024/03/20 04:24:57;;;;;;;12.80;9.63;;;4.10;96.60;;;3.48;100.00;98265.88;5057991;28;20464;-68
2024/03/20 04:27:25;;;;;;;15.23;9.40;;;4.00;96.70;;;3.39;100.00;98255.16;5058162;28;20523;-69
2024/03/20 04:29:53;;;;;;;13.43;9.60;;;4.00;97.20;;;3.47;100.00;98280.22;5056189;28;20469;-68
2024/03/20 04:32:20;;;;;;;14.87;10.50;;;4.00;97.10;;;3.37;100.00;98265.19;5061443;28;20479;-69
2024/03/20 04:34:48;;;;;;;11.87;10.07;;;3.90;97.60;;;3.40;100.00;98270.19;5054541;28;20466;-68
2024/03/20 04:37:15;;;;;;;12.43;9.90;;;3.90;97.90;;;3.53;100.00;98274.22;5060185;28;20499;-69
2024/03/20 04:39:45;;;;;;;12.53;10.00;;;4.00;99.10;;;3.54;100.00;98268.72;5063138;28;20484;-68
2024/03/20 04:42:12;;;;;;;12.23;9.93;;;4.10;98.50;;;3.50;100.00;98269.22;5060901;28;20560;-69
2024/03/20 04:44:40;;;;;;;14.80;10.37;;;4.00;97.70;;;3.53;100.00;98271.56;5057644;28;20984;-69
2024/03/20 04:47:09;;;;;;;12.90;9.77;;;4.00;97.70;;;3.47;100.00;98265.03;5039390;28;20571;-70
2024/03/20 04:49:40;;;;;;;13.30;9.93;;;4.10;97.50;;;3.45;100.00;98274.22;5057476;28;20488;-69
2024/03/20 04:52:08;;;;;;;13.43;10.77;;;4.10;97.40;;;3.47;100.00;98269.56;5052824;28;20480;-68
2024/03/20 04:54:36;;;;;;;16.03;10.73;;;4.10;97.30;;;3.47;100.00;98286.41;5075446;28;20480;-69
2024/03/20 04:57:05;;;;;;;14.20;10.93;;;4.10;97.40;;;3.49;100.00;98270.22;5055435;28;20514;-69
2024/03/20 04:59:33;;;;;;;11.10;9.47;;;4.10;97.10;;;3.46;100.00;98274.03;5053541;28;20473;-69
2024/03/20 05:02:03;;;;;;;15.27;11.17;;;4.10;96.90;;;3.46;100.00;98270.56;5057759;28;20563;-69
2024/03/20 05:04:31;;;;;;;13.43;10.83;;;4.10;96.90;;;3.47;100.00;98272.22;5062293;28;20887;-69
2024/03/20 05:06:58;;;;;;;15.70;10.70;;;4.10;96.70;;;3.36;100.00;98268.84;5055737;28;20888;-69
2024/03/20 05:09:25;;;;;;;14.27;11.23;;;4.00;96.40;;;3.43;100.00;98277.03;5055752;28;20495;-69
2024/03/20 05:11:52;;;;;;;13.60;9.83;;;4.00;96.90;;;2.88;100.00;98195.63;5066871;28;20461;-69
2024/03/20 05:14:20;;;;;;;13.47;10.50;;;4.00;96.70;;;3.37;100.00;98273.19;5043935;28;20551;-69
2024/03/20 05:16:48;;;;;;;13.97;10.83;;;4.00;97.40;;;3.38;100.00;98274.03;5077309;28;20484;-69
2024/03/20 05:19:15;;;;;;;12.47;10.37;;;3.90;97.70;;;3.36;100.00;98279.53;5061461;28;20570;-70
2024/03/20 05:21:42;;;;;;;14.23;10.43;;;3.90;97.70;;;3.43;100.00;98278.91;5057923;28;20980;-70
2024/03/20 05:24:09;;;;;;;13.70;10.87;;;3.90;98.50;;;3.51;100.00;98274.41;5054358;28;20477;-69
2024/03/20 05:26:35;;;;;;;13.80;10.87;;;4.00;98.40;;;3.51;100.00;98277.06;5054970;28;20482;-69
2024/03/20 05:29:05;;;;;;;16.80;11.90;;;4.00;97.50;;;3.50;100.00;98279.91;5054197;28;20880;-69
2024/03/20 05:31:33;;;;;;;17.40;11.90;;;4.10;97.40;;;3.46;100.00;98275.91;5058452;28;20469;-69
2024/03/20 05:34:02;;;;;;;16.30;11.07;;;4.10;96.90;;;3.47;100.00;98282.91;5062349;28;20469;-68
2024/03/20 05:36:30;;;;;;;14.73;11.30;;;4.10;96.40;;;3.07;100.00;98195.34;5055136;28;20496;-68
2024/03/20 05:38:58;;;;;;;14.53;10.63;;;4.20;96.60;;;3.59;100.00;98278.09;5053652;28;20531;-69
2024/03/20 05:41:27;;;;;;;14.97;11.47;;;4.20;96.70;;;3.67;100.00;98292.28;5062603;28;20595;-68
2024/03/20 05:43:54;;;;;;;13.40;11.20;;;4.20;96.90;;;3.76;100.00;98295.81;5058916;28;20563;-68
2024/03/20 05:46:21;;;;;;;18.87;11.37;;;4.30;96.80;;;3.51;100.00;98255.72;5049360;28;20473;-68
2024/03/20 05:48:50;;;;;;;15.60;11.50;;;4.30;96.40;;;3.85;100.00;98302.00;5042965;28;20477;-69
2024/03/20 05:51:17;;;;;;;16.30;12.10;;;4.40;96.50;;;3.85;100.00;98293.97;5056168;28;20477;-70
2024/03/20 05:53:45;;;;;;;14.67;11.40;;;4.50;96.50;;;3.98;100.00;98301.53;5060584;28;20629;-69
2024/03/20 05:56:13;;;;;;;15.57;11.73;;;4.50;96.00;;;4.13;99.95;98309.72;5059906;28;20477;-70
2024/03/20 05:58:42;;;;;;;14.63;11.00;;;4.60;96.50;;;4.33;98.93;98312.06;5061582;28;20500;-70
2024/03/20 06:01:09;;;;;;;15.13;11.30;;;4.70;96.30;;;4.35;97.13;98300.19;5057976;28;20476;-70
2024/03/20 06:03:36;;;;;;;13.97;10.90;;;4.90;95.30;;;4.43;96.42;98311.91;5063438;28;20481;-69
2024/03/20 06:06:04;;;;;;;16.33;11.80;;;5.00;93.70;;;4.53;95.42;98315.22;5059715;28;21241;-71
2024/03/20 06:08:31;;;;;;;12.43;10.43;;;5.00;93.30;;;4.58;95.38;98320.91;5060006;28;20499;-70
2024/03/20 06:10:58;;;;;;;13.27;10.53;;;5.10;92.40;;;4.68;94.85;98315.38;5063273;28;20611;-71
2024/03/20 06:13:26;;;;;;;12.10;9.97;;;5.20;92.40;;;4.74;94.31;98320.03;5056081;28;20472;-70
2024/03/20 06:15:54;;;;;;;17.70;12.53;;;5.30;91.80;;;4.88;93.46;98321.19;5068061;28;20532;-71
2024/03/20 06:18:22;;;;;;;13.90;10.67;;;5.40;91.60;;;4.88;93.41;98309.63;5075671;28;20481;-70
2024/03/20 06:20:50;;;;;;;12.70;10.23;;;5.40;91.20;;;4.81;92.54;98307.66;5058159;28;20473;-72
2024/03/20 06:23:18;;;;;;;22.53;12.57;;;5.40;90.70;;;4.99;91.85;98322.66;5057381;28;20581;-72
2024/03/20 06:25:45;;;;;;;16.30;13.63;;;5.50;90.70;;;5.00;92.16;98318.97;5061136;28;20463;-72
2024/03/20 06:28:13;;;;;;;12.17;10.63;;;5.60;90.50;;;5.17;91.13;98324.25;5055027;28;20493;-70
2024/03/20 06:30:39;;;;;;;11.60;10.40;;;5.70;90.40;;;5.09;91.96;98323.31;5060743;28;20483;-70
2024/03/20 06:33:08;;;;;;;15.93;11.43;;;5.80;90.10;;;5.32;92.81;98324.38;5059173;28;20480;-69
2024/03/20 06:35:34;;;;;;;16.30;12.00;;;6.00;90.50;;;5.34;90.74;98331.22;5080553;28;20478;-70
2024/03/20 06:38:03;;;;;;;13.17;10.87;;;6.20;88.90;;;5.38;90.77;98327.22;5059090;28;20808;-69
2024/03/20 06:40:32;;;;;;;15.10;11.53;;;6.30;88.50;;;5.53;91.56;98337.16;5060901;28;20477;-69
2024/03/20 06:43:01;;;;;;;16.47;12.03;;;6.30;88.70;;;5.69;89.19;98330.91;5040791;28;20486;-70
2024/03/20 06:45:32;;;;;;;17.23;11.70;;;6.40;87.90;;;5.85;87.74;98338.03;5059047;28;20478;-71
2024/03/20 06:48:01;;;;;;;14.37;11.43;;;6.50;87.30;;;5.58;88.98;98342.00;5059377;28;20510;-70
2024/03/20 06:50:28;;;;;;;14.00;11.87;;;6.50;86.90;;;6.03;87.80;98339.59;5076098;28;20481;-70
2024/03/20 06:52:57;;;;;;;16.93;11.57;;;6.60;86.90;;;5.72;88.34;98351.16;5060333;28;20508;-70
2024/03/20 06:55:25;;;;;;;16.57;11.97;;;6.70;86.40;;;5.67;86.53;98282.81;5059134;28;20478;-68
2024/03/20 06:57:54;;;;;;;15.47;11.63;;;6.90;86.20;;;5.97;86.58;98346.47;5059607;28;20537;-67
2024/03/20 07:00:22;;;;;;;14.80;12.30;;;7.00;85.70;;;6.04;86.52;98343.97;5059486;28;20989;-81
2024/03/20 07:02:50;;;;;;;16.73;12.27;;;7.00;85.40;;;5.61;88.94;98349.69;5056246;28;20514;-72
2024/03/20 07:05:17;;;;;;;15.00;11.87;;;6.80;85.50;;;6.05;88.52;98353.69;5044554;28;20566;-68
2024/03/20 07:07:45;;;;;;;15.33;12.43;;;6.90;85.90;;;6.27;87.05;98352.00;5057106;28;20466;-71
2024/03/20 07:10:12;;;;;;;18.43;12.63;;;7.10;85.60;;;6.61;85.15;98363.31;5063045;28;20974;-73
2024/03/20 07:12:39;;;;;;;22.23;13.60;;;7.30;85.60;;;6.50;85.26;98346.63;5057237;28;20560;-75
2024/03/20 07:15:09;;;;;;;17.97;13.53;;;7.40;85.00;;;6.77;84.77;98349.75;5057356;28;20479;-64
2024/03/20 07:17:37;;;;;;;15.23;12.20;;;7.50;85.10;;;6.74;84.70;98351.94;5057832;28;20478;-70
2024/03/20 07:20:06;;;;;;;17.17;13.63;;;7.50;84.70;;;6.84;83.79;98346.31;5063851;28;20920;-64
2024/03/20 07:22:34;;;;;;;17.23;13.40;;;7.60;84.50;;;7.21;82.79;98348.09;5060975;28;20484;-66
2024/03/20 07:25:01;;;;;;;17.20;12.37;;;7.80;84.60;;;7.37;80.76;98347.06;5043486;28;20513;-65
2024/03/20 07:27:28;;;;;;;20.00;15.13;;;8.00;83.90;;;7.63;80.61;98344.91;5063763;28;20573;-67
2024/03/20 07:29:55;;;;;;;16.00;13.10;;;8.30;83.80;;;7.55;80.59;98343.16;5045885;28;20497;-67
2024/03/20 07:32:24;;;;;;;18.63;15.17;;;8.30;83.40;;;7.73;79.45;98347.28;5059636;28;20475;-66
2024/03/20 07:34:50;;;;;;;19.67;15.43;;;8.40;83.00;;;7.82;79.59;98343.47;5057038;28;20466;-64
2024/03/20 07:37:18;;;;;;;22.83;17.10;;;8.50;82.90;;;7.61;79.49;98298.56;5078159;28;20471;-65
2024/03/20 07:39:44;;;;;;;22.20;16.70;;;8.60;82.70;;;7.94;79.09;98336.56;5062081;28;21184;-66
2024/03/20 07:42:12;;;;;;;24.63;19.43;;;8.60;82.50;;;8.07;78.44;98338.56;5054520;28;20478;-68
2024/03/20 07:44:38;;;;;;;23.60;18.70;;;8.70;82.40;;;8.06;78.25;98344.13;5071669;28;20486;-68
2024/03/20 07:47:06;;;;;;;23.33;17.50;;;8.70;82.20;;;8.29;77.50;98340.44;5057726;28;20839;-66
2024/03/20 07:49:34;;;;;;;27.77;18.13;;;8.90;82.50;;;8.34;77.40;98340.69;5074194;28;20516;-66
2024/03/20 07:52:02;;;;;;;20.60;17.10;;;9.00;81.90;;;8.61;76.29;98335.56;5061187;28;20484;-66
2024/03/20 07:54:29;;;;;;;23.43;17.90;;;9.20;81.70;;;8.65;75.00;98347.59;5059755;28;20467;-71
2024/03/20 07:56:57;;;;;;;20.83;17.00;;;9.30;81.20;;;8.61;76.10;98340.94;5077425;28;20485;-71
2024/03/20 07:59:25;;;;;;;21.33;17.03;;;9.30;81.20;;;8.81;75.40;98335.72;5063622;28;20498;-70
2024/03/20 08:01:53;;;;;;;21.23;16.73;;;9.40;81.20;;;8.90;75.37;98345.28;5062214;28;20483;-70
2024/03/20 08:04:22;;;;;;;17.60;14.93;;;9.50;81.00;;;9.32;73.70;98348.03;5055383;28;20538;-69
2024/03/20 08:06:52;;;;;;;22.20;15.70;;;9.70;80.80;;;9.61;73.37;98346.09;5062507;28;20497;-70
2024/03/20 08:09:19;;;;;;;21.20;16.27;;;10.00;79.80;;;9.78;72.42;98351.13;5052703;28;20588;-69
2024/03/20 08:11:46;;;;;;;21.33;15.90;;;10.20;79.30;;;9.97;71.47;98343.34;5057519;28;21132;-69
2024/03/20 08:14:13;;;;;;;19.77;16.13;;;10.40;78.80;;;10.13;70.35;98348.34;5060160;28;20975;-69
2024/03/20 08:16:41;;;;;;;20.23;15.47;;;10.60;78.50;;;10.03;70.58;98327.16;5061971;28;20486;-68
2024/03/20 08:19:07;;;;;;;19.53;15.90;;;10.70;78.10;;;10.24;70.28;98352.31;5059802;28;20466;-69
2024/03/20 08:21:36;;;;;;;21.03;18.00;;;10.70;77.90;;;10.43;69.63;98344.47;5057773;28;20481;-69
2024/03/20 08:24:05;;;;;;;19.37;15.33;;;10.90;77.60;;;10.51;68.88;98338.03;5059110;28;20482;-70
2024/03/20 08:26:32;;;;;;;19.43;16.30;;;11.00;77.20;;;10.61;68.82;98341.16;5050321;28;20483;-69
2024/03/20 08:28:59;;;;;;;20.70;15.77;;;11.10;77.00;;;10.84;68.11;98348.00;5063765;28;20491;-70
2024/03/20 08:31:26;;;;;;;18.37;15.57;;;11.30;76.80;;;10.84;67.45;98340.75;5060280;28;20491;-70
2024/03/20 08:33:52;;;;;;;17.90;15.30;;;11.30;76.00;;;10.77;66.88;98338.03;5060154;28;20653;-70
2024/03/20 08:36:20;;;;;;;15.97;14.27;;;11.40;75.70;;;10.41;68.05;98347.41;5059253;28;20484;-71
2024/03/20 08:38:47;;;;;;;15.87;14.17;;;11.10;75.50;;;10.75;67.72;98341.97;5061201;28;21299;-70
2024/03/20 08:41:15;;;;;;;19.53;14.83;;;11.20;75.80;;;11.12;66.66;98342.38;5055455;28;20492;-72
2024/03/20 08:43:41;;;;;;;20.37;16.40;;;11.50;76.30;;;11.30;65.93;98346.28;5062306;28;20523;-70
2024/03/20 08:46:10;;;;;;;17.97;14.00;;;11.70;75.70;;;11.41;65.51;98336.66;5060372;28;20496;-71
2024/03/20 08:48:36;;;;;;;19.53;15.23;;;11.80;75.10;;;11.57;64.49;98338.91;5056380;28;20561;-69
2024/03/20 08:51:07;;;;;;;17.47;14.10;;;12.00;74.80;;;11.56;64.22;98334.53;5055639;28;20483;-70
2024/03/20 08:53:33;;;;;;;16.97;12.40;;;12.10;74.30;;;11.19;63.98;98342.34;5062820;28;21328;-69
2024/03/20 08:56:01;;;;;;;13.77;12.27;;;11.90;73.20;;;11.30;64.19;98339.00;5059711;28;20598;-69
2024/03/20 08:58:29;;;;;;;15.38;13.32;;;11.90;73.70;;;11.53;63.17;98344.97;5060868;28;20454;-70
2024/03/20 09:00:57;;;;;;;15.90;13.47;;;12.00;73.10;;;11.70;62.28;98346.16;5056505;28;20721;-69
2024/03/20 09:03:23;;;;;;;14.70;12.33;;;12.20;72.60;;;12.17;61.72;98345.91;5058356;28;20909;-69
2024/03/20 09:05:50;;;;;;;17.23;12.70;;;12.40;72.60;;;12.43;60.52;98340.53;5059079;28;20995;-70
2024/03/20 09:08:17;;;;;;;27.60;13.03;;;12.70;72.10;;;12.62;59.80;98341.44;5064301;28;20492;-70
2024/03/20 09:10:44;;;;;;;13.07;11.20;;;13.00;71.70;;;12.87;59.58;98335.19;5063379;28;20476;-69
2024/03/20 09:13:10;;;;;;;12.77;11.40;;;13.20;71.60;;;12.69;58.79;98323.25;5065734;28;20499;-69
2024/03/20 09:15:40;;;;;;;12.57;10.90;;;13.20;70.30;;;12.50;59.47;98321.53;5061591;28;20896;-70
2024/03/20 09:18:08;;;;;;;13.33;11.27;;;13.00;70.00;;;12.66;59.09;98317.44;5064974;28;20487;-70
2024/03/20 09:20:40;;;;;;;15.20;12.23;;;13.00;70.10;;;12.98;57.71;98322.78;5059131;28;20576;-69
2024/03/20 09:23:07;;;;;;;12.47;11.13;;;13.30;69.70;;;13.22;56.97;98312.94;5065739;28;20481;-68
2024/03/20 09:25:34;;;;;;;11.73;10.37;;;13.50;69.30;;;13.06;57.04;98318.94;5052276;28;21119;-69
2024/03/20 09:28:00;;;;;;;13.40;10.60;;;13.50;68.50;;;13.28;56.48;98306.63;5065178;28;21056;-70
2024/03/20 09:30:28;;;;;;;14.73;11.40;;;13.80;68.50;;;13.69;55.99;98327.88;5064863;28;20492;-70
2024/03/20 09:32:56;;;;;;;15.50;10.80;;;14.00;68.10;;;13.84;55.14;98320.16;5065341;28;20488;-68
2024/03/20 09:35:23;;;;;;;12.03;10.57;;;14.10;67.80;;;13.85;54.46;98327.25;5067502;28;20550;-69
2024/03/20 09:37:50;;;;;;;10.63;9.47;;;14.30;67.00;;;13.74;55.06;98322.59;5060497;28;20485;-70
2024/03/20 09:40:22;;;;;;;11.40;10.20;;;14.30;66.70;;;13.52;55.16;98322.25;5073919;28;20483;-69
2024/03/20 09:42:51;;;;;;;11.37;9.43;;;14.10;66.40;;;13.72;54.28;98321.97;5058276;28;20516;-69
2024/03/20 09:45:19;;;;;;;9.47;8.47;;;14.10;65.90;;;14.07;53.56;98313.16;5065309;28;20976;-70
2024/03/20 09:47:48;;;;;;;10.90;9.80;;;14.30;65.90;;;13.50;53.88;98254.59;5058568;28;21007;-70
2024/03/20 09:50:18;;;;;;;9.83;8.83;;;14.40;65.20;;;13.78;54.23;98321.09;5062739;28;20495;-69
2024/03/20 09:52:45;;;;;;;9.80;8.83;;;14.20;65.10;;;13.98;53.67;98312.66;5058847;28;20480;-69
2024/03/20 09:55:15;;;;;;;12.10;9.73;;;14.30;65.30;;;14.21;53.15;98315.69;5070818;28;20485;-69
2024/03/20 09:57:43;;;;;;;10.33;8.93;;;14.50;64.80;;;14.44;52.34;98310.31;5063154;28;20472;-69
2024/03/20 10:00:16;;;;;;;11.17;9.40;;;14.70;64.60;;;14.33;53.10;98315.72;5060018;28;20495;-70
2024/03/20 10:02:44;;;;;;;9.20;8.03;;;14.70;64.50;;;14.63;52.37;98304.75;5059748;28;20518;-71
2024/03/20 10:05:12;;;;;;;9.20;8.30;;;14.90;64.20;;;14.59;52.12;98304.44;5060180;28;20487;-70
2024/03/20 10:07:41;;;;;;;10.80;8.20;;;15.00;63.70;;;14.64;51.73;98303.72;5068240;28;20464;-69
2024/03/20 10:10:13;;;;;;;9.13;7.80;;;15.10;63.40;;;14.61;51.93;98306.91;5059705;28;20571;-70
2024/03/20 10:12:40;;;;;;;12.07;7.70;;;15.10;63.20;;;14.79;50.81;98297.84;5058506;28;20473;-70
2024/03/20 10:15:08;;;;;;;8.47;7.67;;;15.20;62.90;;;15.08;50.15;98300.69;5058336;28;20979;-71
2024/03/20 10:17:35;;;;;;;8.20;7.40;;;15.30;62.40;;;14.98;50.29;98300.44;5064831;28;20475;-70
2024/03/20 10:20:05;;;;;;;9.33;7.70;;;15.50;62.00;;;14.83;50.09;98292.78;5066692;28;20812;-71
2024/03/20 10:22:33;;;;;;;9.23;7.17;;;15.60;61.50;;;14.96;50.12;98292.53;5079356;28;20582;-69